Terminal Aerodrome Forecast
Issued by NWS

Home | Current Version | Previous Version | Graphics & Text | Print | Product List | Glossary On
Versions: 1 2 3 4 5 6 7 8 9 10 11 12 13 14 15 16 17 18 19 20 21 22
606
FTUS43 KABR 231739 AAB
TAFMBG
TAF AMD
KMBG 231739Z 2318/2418 03011KT P6SM VCSH OVC015
     FM240000 03008KT P6SM SHRA OVC015
     FM240300 02010KT 6SM SHRA OVC008
     FM241200 36012KT 6SM -SHRA OVC008
     FM241400 36012G19KT 6SM -SHRA OVC003=

USA.gov is the U.S. government's official web portal to all federal, state and local government web resources and services.